D/T METAR WX W/DIR W/SPE G/SPE TEMP DEWP
3/07/20 23:50 EGUB 032250Z AUTO 20011KT 9999 // OVC009/// 15/13 Q1012 SSW (200°) 12.7mph 15°C 13°C
3/07/20 22:50 EGUB 032150Z AUTO 20011KT 9999 // OVC011/// 15/13 Q1013 SSW (200°) 12.7mph 15°C 13°C
3/07/20 21:50 EGUB 032050Z AUTO 20012KT 9999 // OVC012/// 15/13 Q1013 SSW (200°) 13.8mph 15°C 13°C
3/07/20 20:50 EGUB 031950Z AUTO 20014KT 9999 // BKN012/// SCT021/// 14/13 Q1013 SSW (200°) 16.1mph 14°C 13°C
3/07/20 19:50 EGUB 031850Z AUTO 19013KT 9999 // SCT014/// SCT038/// 14/13 Q1013 S (190°) 15.0mph 14°C 13°C
3/07/20 18:50 EGUB 031750Z AUTO 20014KT 9999 // FEW044/// BKN050/// 15/12 Q1014 SSW (200°) 16.1mph 15°C 12°C
3/07/20 17:50 EGUB 031650Z AUTO 21015KT 9999 // SCT028/// BKN050/// 17/11 Q1014 SSW (210°) 17.3mph 17°C 11°C
3/07/20 16:50 EGUB 031550Z AUTO 22017KT 9999 // BKN030/// BKN070/// BKN120/// 18/11 Q1014 SW (220°) 19.6mph 18°C 11°C
3/07/20 15:50 EGUB 031450Z AUTO 22014KT 9999 // SCT034/// OVC070/// 19/12 Q1014 SW (220°) 16.1mph 19°C 12°C
3/07/20 14:50 EGUB 031350Z AUTO 22015KT 9999 // SCT036/// BKN080/// 19/11 Q1014 SW (220°) 17.3mph 19°C 11°C
3/07/20 13:50 EGUB 031250Z 22016KT 9999 BKN035 20/11 Q1015 NOSIG RMK BLU BLU SW (220°) 18.4mph 20°C 11°C
3/07/20 13:20 EGUB 031220Z 23015KT 9999 BKN034 BKN250 20/11 Q1015 NOSIG RMK BLU BLU SW (230°) 17.3mph 20°C 11°C
3/07/20 12:50 EGUB 031150Z 21015KT 9999 SCT035 SCT250 18/10 Q1015 NOSIG RMK BLU BLU SSW (210°) 17.3mph 18°C 10°C
3/07/20 12:21 EGUB 031121Z 22017KT 9999 BKN033 19/10 Q1016 NOSIG RMK BLU BLU SW (220°) 19.6mph 19°C 10°C
3/07/20 11:50 EGUB 031050Z 21017KT 9999 BKN030 BKN080 18/10 Q1016 NOSIG RMK BLU BLU SSW (210°) 19.6mph 18°C 10°C
3/07/20 11:20 EGUB 031020Z 22015G25KT 9999 BKN028 18/10 Q1016 NOSIG RMK BLU BLU SW (220°) 17.3mph 28.8mph 18°C 10°C
3/07/20 10:50 EGUB 030950Z 23014KT 9999 BKN026 BKN070 16/10 Q1016 NOSIG RMK BLU BLU SW (230°) 16.1mph 16°C 10°C
3/07/20 10:20 EGUB 030920Z 23014KT 9999 BKN026 18/11 Q1016 NOSIG RMK BLU BLU SW (230°) 16.1mph 18°C 11°C
3/07/20 09:50 EGUB 030850Z 22013KT 9999 FEW024 SCT026 16/10 Q1016 NOSIG RMK BLU BLU SW (220°) 15.0mph 16°C 10°C
3/07/20 09:20 EGUB 030820Z 22012KT 9999 SCT022 BKN035 16/11 Q1016 TEMPO SCT025 RMK WHT TEMPO BLU SW (220°) 13.8mph 16°C 11°C
3/07/20 08:50 EGUB 030750Z 21013KT 9999 FEW016 BKN100 15/11 Q1016 TEMPO SCT018 RMK BLU TEMPO WHT SSW (210°) 15.0mph 15°C 11°C
3/07/20 08:20 EGUB 030720Z 21012KT 9999 FEW018 SCT029 BKN100 14/11 Q1016 TEMPO SCT018 RMK BLU TEMPO WHT SSW (210°) 13.8mph 14°C 11°C
3/07/20 06:50 EGUB 030550Z AUTO 21007KT 9999 // SCT130/// 12/11 Q1016 SSW (210°) 8.1mph 12°C 11°C
3/07/20 05:50 EGUB 030450Z AUTO 19006KT 9999 // FEW140/// 11/10 Q1016 S (190°) 6.9mph 11°C 10°C
3/07/20 04:50 EGUB 030350Z AUTO 19006KT 9999 // FEW130/// 11/10 Q1016 S (190°) 6.9mph 11°C 10°C
3/07/20 03:50 EGUB 030250Z AUTO 18005KT 9999 // NCD 10/09 Q1016 S (180°) 5.8mph 10°C 9°C
3/07/20 02:50 EGUB 030150Z AUTO 15004KT 9999 // SCT160/// 11/10 Q1016 SSE (150°) 4.6mph 11°C 10°C
3/07/20 01:50 EGUB 030050Z AUTO 21003KT 9999 // NCD 12/11 Q1016 SSW (210°) 3.5mph 12°C 11°C
3/07/20 01:21 EGUB 030021Z 24005KT CAVOK 13/11 Q1016 NOSIG RMK BLU BLU WSW (240°) 5.8mph 13°C 11°C
3/07/20 00:50 EGUB 022350Z 25005KT CAVOK 13/12 Q1016 NOSIG RMK BLU BLU WSW (250°) 5.8mph 13°C 12°C
3/07/20 00:20 EGUB 022320Z 26004KT CAVOK 14/12 Q1016 NOSIG RMK BLU BLU W (260°) 4.6mph 14°C 12°C
2/07/20 23:50 EGUB 022250Z 23006KT 9999 FEW025 SCT060 BKN250 14/13 Q1016 NOSIG RMK BLU BLU SW (230°) 6.9mph 14°C 13°C
2/07/20 23:21 EGUB 022221Z 23004KT 9999 FEW025 BKN060 15/13 Q1015 NOSIG RMK BLU BLU SW (230°) 4.6mph 15°C 13°C
2/07/20 22:50 EGUB 022150Z 24004KT 9999 FEW025 BKN060 16/14 Q1015 NOSIG RMK BLU BLU WSW (240°) 4.6mph 16°C 14°C
2/07/20 22:21 EGUB 022121Z 24003KT 9999 FEW028 BKN040 16/14 Q1015 NOSIG RMK BLU BLU WSW (240°) 3.5mph 16°C 14°C
2/07/20 21:50 EGUB 022050Z 24002KT 9999 FEW028 BKN042 17/14 Q1015 NOSIG RMK BLU BLU WSW (240°) 2.3mph 17°C 14°C
2/07/20 21:22 EGUB 022022Z 25002KT 9999 FEW028 BKN040 17/14 Q1014 NOSIG RMK BLU BLU WSW (250°) 2.3mph 17°C 14°C
2/07/20 20:50 EGUB 021950Z 24002KT 9999 FEW028 BKN040 BKN090 17/13 Q1014 NOSIG RMK BLU BLU WSW (240°) 2.3mph 17°C 13°C
2/07/20 20:20 EGUB 021920Z 26004KT 9999 FEW028 BKN100 17/13 Q1014 NOSIG RMK BLU BLU W (260°) 4.6mph 17°C 13°C
2/07/20 19:50 EGUB 021850Z 27005KT 9999 FEW028 SCT080 BKN100 17/13 Q1014 NOSIG RMK BLU BLU W (270°) 5.8mph 17°C 13°C
2/07/20 19:20 EGUB 021820Z 28005KT 9999 FEW028 BKN080 17/13 Q1013 NOSIG RMK BLU BLU W (280°) 5.8mph 17°C 13°C
2/07/20 18:50 EGUB 021750Z 27006KT 9999 FEW028 BKN080 17/14 Q1013 NOSIG RMK BLU BLU W (270°) 6.9mph 17°C 14°C
2/07/20 18:20 EGUB 021720Z 28011KT 9999 FEW026 BKN090 18/13 Q1013 NOSIG RMK BLU BLU W (280°) 12.7mph 18°C 13°C
2/07/20 17:50 EGUB 021650Z 27011KT 9999 FEW026 BKN090 18/13 Q1012 NOSIG RMK BLU BLU W (270°) 12.7mph 18°C 13°C
2/07/20 17:20 EGUB 021620Z 27011KT 9999 FEW026 BKN090 19/13 Q1012 NOSIG RMK BLU BLU W (270°) 12.7mph 19°C 13°C
2/07/20 16:50 EGUB 021550Z 25011KT 9999 FEW025 BKN090 19/12 Q1012 NOSIG RMK BLU BLU WSW (250°) 12.7mph 19°C 12°C
2/07/20 16:21 EGUB 021521Z 25011KT 9999 FEW023 BKN090 20/14 Q1012 NOSIG RMK BLU BLU WSW (250°) 12.7mph 20°C 14°C
2/07/20 15:50 EGUB 021450Z 26010KT 9999 FEW023 BKN080 18/12 Q1012 NOSIG RMK BLU BLU W (260°) 11.5mph 18°C 12°C
2/07/20 15:20 EGUB 021420Z 24009KT 9999 FEW023 SCT030 BKN090 18/13 Q1011 NOSIG RMK BLU BLU WSW (240°) 10.4mph 18°C 13°C
2/07/20 14:50 EGUB 021350Z 25010KT 9999 -SHRA FEW023 SCT030 17/12 Q1011 NOSIG RMK BLU BLU -SHRA WSW (250°) 11.5mph 17°C 12°C
2/07/20 14:20 EGUB 021320Z 25006KT 9999 FEW023 SCT027 18/14 Q1011 NOSIG RMK BLU BLU WSW (250°) 6.9mph 18°C 14°C
2/07/20 13:50 EGUB 021250Z 23009KT 9999 FEW022 BKN070 18/14 Q1011 TEMPO 6000 SHRA SCT022 RMK BLU TEMPO WHT SW (230°) 10.4mph 18°C 14°C
2/07/20 13:20 EGUB 021220Z 24010KT 9999 SCT022 SCT070 17/13 Q1011 TEMPO FEW022 RMK WHT TEMPO BLU WSW (240°) 11.5mph 17°C 13°C
2/07/20 12:50 EGUB 021150Z 24010KT 9999 FEW013 SCT050 17/15 Q1010 NOSIG RMK BLU BLU WSW (240°) 11.5mph 17°C 15°C
2/07/20 12:20 EGUB 021120Z 24009KT 9999 -SHRA SCT022 BKN036 BKN050 16/13 Q1010 TEMPO 6000 SHRA RMK WHT TEMPO WHT -SHRA WSW (240°) 10.4mph 16°C 13°C
2/07/20 11:50 EGUB 021050Z 22004KT 9999 FEW010TCU BKN016 16/15 Q1010 RESHRA TEMPO 6000 SHRA RMK WHT TEMPO WHT SW (220°) 4.6mph 16°C 15°C
2/07/20 11:36 EGUB 021036Z 23004KT 9999 -SHRA FEW006 FEW010TCU SCT022 14/13 Q1010 TEMPO 6000 SHRA RMK WHT TEMPO WHT -SHRA SW (230°) 4.6mph 14°C 13°C
2/07/20 11:07 EGUB 021007Z 27008KT 4000 +SHRA SCT015 BKN047 15/13 Q1010 BECMG 9999 NSW SCT025 RMK GRN BECMG BLU +SHRA W (270°) 9.2mph 15°C 13°C
2/07/20 10:20 EGUB 020920Z 24011KT 9999 SCT016 SCT038 BKN050 16/12 Q1010 TEMPO FEW016 RMK WHT TEMPO BLU WSW (240°) 12.7mph 16°C 12°C
2/07/20 09:50 EGUB 020850Z 24010KT 9999 BKN018 16/12 Q1010 BECMG SCT025 RMK WHT BECMG BLU WSW (240°) 11.5mph 16°C 12°C
2/07/20 09:21 EGUB 020821Z 22010KT 9999 BKN015 15/12 Q1009 BECMG SCT025 RMK WHT BECMG BLU SW (220°) 11.5mph 15°C 12°C
2/07/20 08:50 EGUB 020750Z 22009KT 9999 BKN015 BKN050 15/12 Q1009 BECMG SCT025 RMK WHT BECMG BLU SW (220°) 10.4mph 15°C 12°C
2/07/20 08:20 EGUB 020720Z 22009KT 9999 FEW012 BKN017 BKN030 14/12 Q1009 TEMPO FEW018 RMK WHT TEMPO BLU SW (220°) 10.4mph 14°C 12°C
2/07/20 07:50 EGUB 020650Z 21008KT 9999 FEW010 BKN039 14/12 Q1009 TEMPO SCT022 RMK BLU TEMPO WHT SSW (210°) 9.2mph 14°C 12°C
2/07/20 07:20 EGUB 020620Z 22008KT 9999 FEW011 SCT023 13/11 Q1009 TEMPO FEW022 RMK WHT TEMPO BLU SW (220°) 9.2mph 13°C 11°C
2/07/20 06:50 EGUB 020550Z 20006KT 9999 FEW010 SCT037 13/11 Q1009 TEMPO SCT022 RMK BLU TEMPO WHT SSW (200°) 6.9mph 13°C 11°C
2/07/20 05:50 EGUB 020450Z AUTO 20005KT 9999 // FEW042/// SCT060/// 11/10 Q1008 SSW (200°) 5.8mph 11°C 10°C
2/07/20 04:50 EGUB 020350Z AUTO 18005KT 9999 // FEW018/// 10/09 Q1008 S (180°) 5.8mph 10°C 9°C
2/07/20 03:50 EGUB 020250Z AUTO 18006KT 9999 // SCT035/// 11/10 Q1008 S (180°) 6.9mph 11°C 10°C
2/07/20 02:50 EGUB 020150Z AUTO 17007KT 9999 // NCD 10/09 Q1008 S (170°) 8.1mph 10°C 9°C
2/07/20 02:20 EGUB 020120Z 19006KT CAVOK 10/08 Q1008 NOSIG RMK BLU BLU S (190°) 6.9mph 10°C 8°C
2/07/20 01:20 EGUB 020020Z 16004KT CAVOK 11/09 Q1008 MOSIG RMK BLU BLU SSE (160°) 4.6mph 11°C 9°C
2/07/20 00:20 EGUB 012320Z 20003KT CAVOK 12/09 Q1008 NOSIG RMK BLU BLU SSW (200°) 3.5mph 12°C 9°C
1/07/20 23:50 EGUB 012250Z 22005KT CAVOK 13/08 Q1008 NOSIG RMK BLU BLU SW (220°) 5.8mph 13°C 8°C
1/07/20 23:20 EGUB 012220Z 24007KT CAVOK 15/09 Q1008 NOSIG RMK BLU BLU WSW (240°) 8.1mph 15°C 9°C
1/07/20 22:50 EGUB 012150Z 24007KT CAVOK 15/09 Q1008 NOSIG RMK BLU BLU WSW (240°) 8.1mph 15°C 9°C
1/07/20 22:20 EGUB 012120Z 24010KT CAVOK 16/08 Q1007 NOSIG RMK BLU BLU WSW (240°) 11.5mph 16°C 8°C
1/07/20 21:50 EGUB 012050Z 22008KT CAVOK 16/09 Q1007 NOSIG RMK BLU BLU SW (220°) 9.2mph 16°C 9°C
1/07/20 21:21 EGUB 012021Z 23006KT 9999 FEW025 BKN070 16/10 Q1007 NOSIG RMK BLU BLU SW (230°) 6.9mph 16°C 10°C
1/07/20 20:50 EGUB 011950Z 21006KT 9999 FEW025 BKN070 16/13 Q1007 NOSIG RMK BLU BLU SSW (210°) 6.9mph 16°C 13°C
1/07/20 20:20 EGUB 011920Z 21007KT 9999 FEW025 BKN060 17/13 Q1006 NOSIG RMK BLU BLU SSW (210°) 8.1mph 17°C 13°C
1/07/20 19:50 EGUB 011850Z 22010KT 9999 FEW022 BKN060 17/12 Q1006 NOSIG RMK BLU BLU SW (220°) 11.5mph 17°C 12°C
1/07/20 19:20 EGUB 011820Z 20010KT 9999 FEW025 BKN050 17/14 Q1006 NOSIG RMK BLU BLU SSW (200°) 11.5mph 17°C 14°C
1/07/20 18:50 EGUB 011750Z 21009KT 9999 FEW030 BKN050 17/14 Q1006 NOSIG RMK BLU BLU SSW (210°) 10.4mph 17°C 14°C
1/07/20 18:20 EGUB 011720Z 21010KT 9999 SCT030 BKN060 18/13 Q1006 NOSIG RMK BLU BLU SSW (210°) 11.5mph 18°C 13°C
1/07/20 17:50 EGUB 011650Z 21014KT 9999 SCT030 BKN060 18/13 Q1006 NOSIG RMK BLU BLU SSW (210°) 16.1mph 18°C 13°C
1/07/20 17:20 EGUB 011620Z 21012KT 9999 SCT026 BKN060 19/14 Q1006 NOSIG RMK BLU BLU SSW (210°) 13.8mph 19°C 14°C
1/07/20 16:50 EGUB 011550Z 21012KT 9999 SCT026 SCT040 BKN080 20/14 Q1006 NOSIG RMK BLU BLU SSW (210°) 13.8mph 20°C 14°C
1/07/20 16:20 EGUB 011520Z 25011KT 9999 SCT032 SCT050 20/12 Q1005 NOSIG RMK BLU BLU WSW (250°) 12.7mph 20°C 12°C
1/07/20 15:50 EGUB 011450Z 26012KT 9999 SCT030 SCT050 20/12 Q1005 NOSIG RMK BLU BLU W (260°) 13.8mph 20°C 12°C
1/07/20 15:20 EGUB 011420Z 23012KT 9999 SCT028 SCT060 21/13 Q1005 NOSIG RMK BLU BLU SW (230°) 13.8mph 21°C 13°C
1/07/20 14:50 EGUB 011350Z 25011KT 9999 SCT029 BKN100 20/13 Q1005 NOSIG RMK BLU BLU WSW (250°) 12.7mph 20°C 13°C
1/07/20 14:20 EGUB 011320Z 24013KT 9999 SCT026 BKN070 19/14 Q1005 NOSIG RMK BLU BLU WSW (240°) 15.0mph 19°C 14°C
1/07/20 13:50 EGUB 011250Z 24015KT 9999 FEW024 SCT027 20/12 Q1005 NOSIG RMK BLU BLU WSW (240°) 17.3mph 20°C 12°C
1/07/20 13:20 EGUB 011220Z 23014KT 9999 FEW022TCU SCT028 BKN100 20/13 Q1005 NOSIG RMK BLU BLU SW (230°) 16.1mph 20°C 13°C
1/07/20 12:50 EGUB 011150Z 21012KT 9999 VCSH SCT023 SCT038 BKN070 19/14 Q1005 TEMPO FEW023 RMK WHT TEMPO BLU VCSH SSW (210°) 13.8mph 19°C 14°C